DNKN

Mallam Aminu International Airport

Kano, Nigeria
TAF DNKN 190930Z 1912/2018 23010KT 9999 FEW013 TEMPO 1916/1922 TS FEW020CB
Issued Valid From Valid To
Sep-19 @ 09:30 UTC
(4 hours ago)
Sep-19 @ 12:00 UTC
(an hour ago)
Sep-20 @ 18:00 UTC
(-1 days ago)
Sep-19 @ 12:00 to Sep-20 @ 18:00
TAF DNKN 190930Z 1912/2018 23010KT 9999 FEW013
Wind Visibility Clouds
230° at 10 knots 10,000+ meters
  • Few at 1,300' AGL
Temporary Sep-19 @ 16:00 to Sep-19 @ 22:00
TEMPO 1916/1922 TS FEW020CB
Clouds Conditions
  • Few at 2,000' AGL
  • Thunderstorm
TAF DNKN 190930Z 1912/2018 23010KT 9999 FEW013 TEMPO 1916/1922 TS FEW020CB
Issued Sep-19 @ 09:30 UTC
(4 hours ago)
Valid From Sep-19 @ 12:00 UTC
(an hour ago)
Valid To Sep-20 @ 18:00 UTC
(-1 days ago)
Sep-19 @ 12:00 - Sep-20 @ 18:00
Wind Visibility
230° at 10 knots 10,000+ meters
Clouds
  • Few at 1,300' AGL
Temporary Sep-19 @ 16:00 - Sep-19 @ 22:00
Clouds
  • Few at 2,000' AGL
Conditions
  • Thunderstorm